Waitsfield, VT

2:49 AM EDT on September 04, 2015 (GMT -0400)
Norm's Weather | | Change Station
CLOSE
Current Station
Personal Weather Station
Location: Waitsfield, VT
Elevation: 1150 ft
Nearby Weather Stations

Elev 1150 ft 44.16 °N, 72.82 °W | Updated 7 seconds ago

Mostly Cloudy
Mostly Cloudy
54.0 °F
Feels Like 54.0 °F
N
0.0
Wind Variable Wind from SSE
Gusts 4.0 mph

Today
High -- | Low -- °F
--% Chance of Precip.
Yesterday
High -- | Low -- °F
Precip. -- in
6:17 AM 7:22 PM
Waning Gibbous, 62% visible
Pressure 30.10 in
Visibility 0.5 miles
Clouds
Dew Point 53 °F
Humidity 97%
Rainfall 0.00 in
Snow Depth Not available.
UV Not available.
Pollen 7.70 out of 12
Air Quality Not available.
Flu Activity Not available.
SPECI KMPV 040624Z AUTO 00000KT 1/2SM FG VV001 11/11 A3010 RMK AO2 T01060106
Pressure 30.10 in
Visibility 0.5 miles
Clouds
Dew Point 53 °F
Humidity 97%
Rainfall 0.00 in
Snow Depth Not available.
UV Not available.
Pollen 7.70 out of 12
Air Quality Not available.
Flu Activity Not available.
SPECI KMPV 040624Z AUTO 00000KT 1/2SM FG VV001 11/11 A3010 RMK AO2 T01060106

10-Day Weather Forecast

×

Almanac

Astronomy

Sep. 04, 2015 Rise Set
Actual Time
Civil Twilight
Nautical Twilight
Astronomical Twilight
Moon
Length of Visible Light
Length of Day
Tomorrow will be .
, % of the Moon is Illuminated

Today's Extremes

State Highs State Lows

Community

WunderPhotos

Upload Photos

1,852,132 photos uploaded!

WunderBlogs® & News

Nearby

Air Quality

  Air Quality AQ Index Pollutant
Not available.

Snow Depth

Station Depth Elevation

Earthquake Activity

City Distance Mag. Time & Date
Minimum magnitude displayed is 2.5.

Coastal Water Temperatures

Place Temperature

Stations

Nearby Weather Stations

Station Location Temp. Windchill Dew Point Humidity Wind Precip. Elev Updated Type